KDTL

Details ICAO KDTL
Name DETROIT LAKES WETHING
Region United States
Timezone America/Chicago (UTC-6.0)
Plans Departing 11
Arriving 12
Stats Elevation 1,396 ft / 426 m (AMSL)
Location 46.825394° -95.886804°
Runways 2
Magnetic Variation 2.191° E
Sunrise 2017-12-15 14:03:31 UTC / 2017-12-15 08:03:31 Local
Sunset 2017-12-15 22:36:55 UTC / 2017-12-15 16:36:55 Local
Advertisement - Login to hide

Runways

ID Width Length Bearing (true) Bearing (mag) Surface Threshold Offset Overrun Length
13 75 ft / 23 m 4,496 ft / 1,370 m 139.98° 137.79° Asphalt 0 ft / 0 m 0 ft / 0 m
17 250 ft / 76 m 1,881 ft / 573 m 180.12° 177.93° Grass 0 ft / 0 m 0 ft / 0 m
31 75 ft / 23 m 4,496 ft / 1,370 m 319.99° 317.80° Asphalt 0 ft / 0 m 0 ft / 0 m
35 250 ft / 76 m 1,881 ft / 573 m 0.12° 357.93° Grass 0 ft / 0 m 0 ft / 0 m

Map

Weather


0- 5 10 15 20 25 30 35+ Temperature / ° C

Clouds and Precipitation
Forecast for 2017-12-15 12:00 UTC. Updated an hour ago

Ground ~20,000 ft ~40,000 ft Winds

METAR

KDTL 151155Z AUTO 00000KT 10SM BKN008 M08/M10 A2988 RMK AO2

TAF

Not found

Frequencies

Unicom 122.80 MHz CTAF/UNICOM
Warning: Do not use this data for real-world aviation or navigation. No guarantee of current accuracy is given.